sensor_id;sensor_type;location;lat;lon;timestamp;P1;durP1;ratioP1;P2;durP2;ratioP2
32705;SDS011;19094;50.972;3.538;2024-01-07T00:02:08;14.52;;;6.63;;
32705;SDS011;19094;50.972;3.538;2024-01-07T00:04:34;9.50;;;6.25;;
32705;SDS011;19094;50.972;3.538;2024-01-07T00:06:59;12.77;;;6.10;;
32705;SDS011;19094;50.972;3.538;2024-01-07T00:09:25;11.00;;;6.60;;
32705;SDS011;19094;50.972;3.538;2024-01-07T00:11:51;13.68;;;6.55;;
32705;SDS011;19094;50.972;3.538;2024-01-07T00:14:16;12.65;;;7.15;;
32705;SDS011;19094;50.972;3.538;2024-01-07T00:16:42;17.13;;;7.15;;
32705;SDS011;19094;50.972;3.538;2024-01-07T00:19:08;10.60;;;6.30;;
32705;SDS011;19094;50.972;3.538;2024-01-07T00:21:33;12.00;;;6.82;;
32705;SDS011;19094;50.972;3.538;2024-01-07T00:23:59;9.02;;;5.43;;
32705;SDS011;19094;50.972;3.538;2024-01-07T00:26:25;11.20;;;6.53;;
32705;SDS011;19094;50.972;3.538;2024-01-07T00:28:51;10.70;;;6.65;;
32705;SDS011;19094;50.972;3.538;2024-01-07T00:31:16;15.23;;;6.95;;
32705;SDS011;19094;50.972;3.538;2024-01-07T00:33:42;11.35;;;5.97;;
32705;SDS011;19094;50.972;3.538;2024-01-07T00:36:08;15.57;;;6.05;;
32705;SDS011;19094;50.972;3.538;2024-01-07T00:38:33;10.85;;;6.00;;
32705;SDS011;19094;50.972;3.538;2024-01-07T00:40:59;9.35;;;5.95;;
32705;SDS011;19094;50.972;3.538;2024-01-07T00:43:25;10.23;;;6.50;;
32705;SDS011;19094;50.972;3.538;2024-01-07T00:45:50;13.02;;;5.88;;
32705;SDS011;19094;50.972;3.538;2024-01-07T00:48:16;13.52;;;7.18;;
32705;SDS011;19094;50.972;3.538;2024-01-07T00:50:42;22.92;;;9.05;;
32705;SDS011;19094;50.972;3.538;2024-01-07T00:53:08;21.48;;;8.35;;
32705;SDS011;19094;50.972;3.538;2024-01-07T00:55:33;17.50;;;8.02;;
32705;SDS011;19094;50.972;3.538;2024-01-07T00:58:00;13.98;;;7.40;;
32705;SDS011;19094;50.972;3.538;2024-01-07T01:00:26;15.02;;;7.50;;
32705;SDS011;19094;50.972;3.538;2024-01-07T01:02:53;12.75;;;6.50;;
32705;SDS011;19094;50.972;3.538;2024-01-07T01:05:19;11.02;;;6.78;;
32705;SDS011;19094;50.972;3.538;2024-01-07T01:07:45;11.55;;;7.13;;
32705;SDS011;19094;50.972;3.538;2024-01-07T01:10:10;12.27;;;6.93;;
32705;SDS011;19094;50.972;3.538;2024-01-07T01:12:36;10.93;;;6.57;;
32705;SDS011;19094;50.972;3.538;2024-01-07T01:15:02;13.43;;;6.97;;
32705;SDS011;19094;50.972;3.538;2024-01-07T01:17:27;10.27;;;6.30;;
32705;SDS011;19094;50.972;3.538;2024-01-07T01:19:53;11.05;;;6.47;;
32705;SDS011;19094;50.972;3.538;2024-01-07T01:22:19;11.65;;;6.13;;
32705;SDS011;19094;50.972;3.538;2024-01-07T01:24:44;11.07;;;6.50;;
32705;SDS011;19094;50.972;3.538;2024-01-07T01:27:11;10.95;;;6.15;;
32705;SDS011;19094;50.972;3.538;2024-01-07T01:29:38;12.07;;;6.25;;
32705;SDS011;19094;50.972;3.538;2024-01-07T01:32:05;12.25;;;6.18;;
32705;SDS011;19094;50.972;3.538;2024-01-07T01:34:31;11.57;;;6.60;;
32705;SDS011;19094;50.972;3.538;2024-01-07T01:36:57;16.00;;;6.40;;
32705;SDS011;19094;50.972;3.538;2024-01-07T01:39:22;12.30;;;6.20;;
32705;SDS011;19094;50.972;3.538;2024-01-07T01:41:48;11.35;;;6.10;;
32705;SDS011;19094;50.972;3.538;2024-01-07T01:44:14;14.45;;;5.97;;
32705;SDS011;19094;50.972;3.538;2024-01-07T01:46:39;11.32;;;6.03;;
32705;SDS011;19094;50.972;3.538;2024-01-07T01:49:06;8.25;;;5.53;;
32705;SDS011;19094;50.972;3.538;2024-01-07T01:51:33;9.95;;;5.75;;
32705;SDS011;19094;50.972;3.538;2024-01-07T01:53:59;13.20;;;6.18;;
32705;SDS011;19094;50.972;3.538;2024-01-07T01:56:26;12.30;;;6.05;;
32705;SDS011;19094;50.972;3.538;2024-01-07T01:58:52;11.48;;;6.00;;
32705;SDS011;19094;50.972;3.538;2024-01-07T02:01:18;12.60;;;5.32;;
32705;SDS011;19094;50.972;3.538;2024-01-07T02:03:44;11.18;;;5.43;;
32705;SDS011;19094;50.972;3.538;2024-01-07T02:06:09;8.70;;;5.15;;
32705;SDS011;19094;50.972;3.538;2024-01-07T02:08:37;8.77;;;5.05;;
32705;SDS011;19094;50.972;3.538;2024-01-07T02:13:45;8.75;;;5.53;;
32705;SDS011;19094;50.972;3.538;2024-01-07T02:16:11;12.75;;;6.18;;
32705;SDS011;19094;50.972;3.538;2024-01-07T02:18:38;10.40;;;5.82;;
32705;SDS011;19094;50.972;3.538;2024-01-07T02:21:06;14.00;;;6.60;;
32705;SDS011;19094;50.972;3.538;2024-01-07T02:23:34;11.27;;;6.53;;
32705;SDS011;19094;50.972;3.538;2024-01-07T02:25:59;14.52;;;6.75;;
32705;SDS011;19094;50.972;3.538;2024-01-07T02:28:25;10.80;;;6.53;;
32705;SDS011;19094;50.972;3.538;2024-01-07T02:30:51;9.90;;;5.28;;
32705;SDS011;19094;50.972;3.538;2024-01-07T02:33:16;13.73;;;7.25;;
32705;SDS011;19094;50.972;3.538;2024-01-07T02:35:42;17.10;;;6.85;;
32705;SDS011;19094;50.972;3.538;2024-01-07T02:38:07;14.48;;;7.70;;
32705;SDS011;19094;50.972;3.538;2024-01-07T02:40:33;14.93;;;7.65;;
32705;SDS011;19094;50.972;3.538;2024-01-07T02:42:59;14.43;;;7.78;;
32705;SDS011;19094;50.972;3.538;2024-01-07T02:45:24;19.40;;;7.85;;
32705;SDS011;19094;50.972;3.538;2024-01-07T02:47:50;14.95;;;7.78;;
32705;SDS011;19094;50.972;3.538;2024-01-07T02:50:15;11.90;;;7.00;;
32705;SDS011;19094;50.972;3.538;2024-01-07T02:52:42;14.95;;;7.30;;
32705;SDS011;19094;50.972;3.538;2024-01-07T02:55:08;17.13;;;7.45;;
32705;SDS011;19094;50.972;3.538;2024-01-07T02:57:33;12.40;;;7.32;;
32705;SDS011;19094;50.972;3.538;2024-01-07T02:59:59;13.48;;;7.13;;
32705;SDS011;19094;50.972;3.538;2024-01-07T03:02:25;13.77;;;7.45;;
32705;SDS011;19094;50.972;3.538;2024-01-07T03:04:50;15.10;;;8.50;;
32705;SDS011;19094;50.972;3.538;2024-01-07T03:07:16;14.68;;;7.70;;
32705;SDS011;19094;50.972;3.538;2024-01-07T03:09:42;14.20;;;8.73;;
32705;SDS011;19094;50.972;3.538;2024-01-07T03:12:08;17.70;;;8.85;;
32705;SDS011;19094;50.972;3.538;2024-01-07T03:14:33;14.75;;;8.48;;
32705;SDS011;19094;50.972;3.538;2024-01-07T03:16:59;15.95;;;9.07;;
32705;SDS011;19094;50.972;3.538;2024-01-07T03:19:25;16.05;;;9.23;;
32705;SDS011;19094;50.972;3.538;2024-01-07T03:21:50;15.45;;;9.25;;
32705;SDS011;19094;50.972;3.538;2024-01-07T03:24:16;15.20;;;9.30;;
32705;SDS011;19094;50.972;3.538;2024-01-07T03:26:42;17.00;;;9.45;;
32705;SDS011;19094;50.972;3.538;2024-01-07T03:29:07;14.90;;;9.20;;
32705;SDS011;19094;50.972;3.538;2024-01-07T03:31:33;17.77;;;10.23;;
32705;SDS011;19094;50.972;3.538;2024-01-07T03:33:59;16.83;;;9.88;;
32705;SDS011;19094;50.972;3.538;2024-01-07T03:36:24;18.67;;;10.70;;
32705;SDS011;19094;50.972;3.538;2024-01-07T03:38:50;16.77;;;10.07;;
32705;SDS011;19094;50.972;3.538;2024-01-07T03:41:16;18.90;;;11.15;;
32705;SDS011;19094;50.972;3.538;2024-01-07T03:43:43;17.23;;;10.30;;
32705;SDS011;19094;50.972;3.538;2024-01-07T03:46:09;18.08;;;11.10;;
32705;SDS011;19094;50.972;3.538;2024-01-07T03:48:35;20.08;;;10.88;;
32705;SDS011;19094;50.972;3.538;2024-01-07T03:51:00;17.42;;;11.20;;
32705;SDS011;19094;50.972;3.538;2024-01-07T03:53:26;18.83;;;11.43;;
32705;SDS011;19094;50.972;3.538;2024-01-07T03:55:52;18.83;;;12.57;;
32705;SDS011;19094;50.972;3.538;2024-01-07T03:58:17;19.77;;;12.23;;
32705;SDS011;19094;50.972;3.538;2024-01-07T04:00:43;19.05;;;11.55;;
32705;SDS011;19094;50.972;3.538;2024-01-07T04:03:08;21.13;;;12.40;;
32705;SDS011;19094;50.972;3.538;2024-01-07T04:05:34;21.52;;;12.93;;
32705;SDS011;19094;50.972;3.538;2024-01-07T04:08:01;20.73;;;12.65;;
32705;SDS011;19094;50.972;3.538;2024-01-07T04:10:27;19.58;;;12.48;;
32705;SDS011;19094;50.972;3.538;2024-01-07T04:12:53;24.23;;;13.15;;
32705;SDS011;19094;50.972;3.538;2024-01-07T04:15:18;20.83;;;13.02;;
32705;SDS011;19094;50.972;3.538;2024-01-07T04:17:45;17.92;;;12.13;;
32705;SDS011;19094;50.972;3.538;2024-01-07T04:20:12;20.52;;;13.65;;
32705;SDS011;19094;50.972;3.538;2024-01-07T04:22:38;22.25;;;13.77;;
32705;SDS011;19094;50.972;3.538;2024-01-07T04:25:04;22.85;;;14.32;;
32705;SDS011;19094;50.972;3.538;2024-01-07T04:27:39;20.45;;;13.52;;
32705;SDS011;19094;50.972;3.538;2024-01-07T04:30:05;25.67;;;14.35;;
32705;SDS011;19094;50.972;3.538;2024-01-07T04:32:31;18.60;;;13.48;;
32705;SDS011;19094;50.972;3.538;2024-01-07T04:34:57;24.92;;;15.45;;
32705;SDS011;19094;50.972;3.538;2024-01-07T04:37:26;21.98;;;14.05;;
32705;SDS011;19094;50.972;3.538;2024-01-07T04:39:51;24.38;;;15.23;;
32705;SDS011;19094;50.972;3.538;2024-01-07T04:42:17;22.30;;;13.95;;
32705;SDS011;19094;50.972;3.538;2024-01-07T04:44:43;29.33;;;16.15;;
32705;SDS011;19094;50.972;3.538;2024-01-07T04:47:42;22.98;;;15.68;;
32705;SDS011;19094;50.972;3.538;2024-01-07T04:50:01;33.90;;;16.00;;
32705;SDS011;19094;50.972;3.538;2024-01-07T04:52:28;24.17;;;16.25;;
32705;SDS011;19094;50.972;3.538;2024-01-07T04:54:54;28.45;;;17.23;;
32705;SDS011;19094;50.972;3.538;2024-01-07T04:57:20;28.08;;;16.35;;
32705;SDS011;19094;50.972;3.538;2024-01-07T04:59:47;29.42;;;17.15;;
32705;SDS011;19094;50.972;3.538;2024-01-07T05:02:14;27.33;;;16.73;;
32705;SDS011;19094;50.972;3.538;2024-01-07T05:04:40;31.25;;;17.70;;
32705;SDS011;19094;50.972;3.538;2024-01-07T05:07:06;29.40;;;17.85;;
32705;SDS011;19094;50.972;3.538;2024-01-07T05:09:32;26.05;;;17.58;;
32705;SDS011;19094;50.972;3.538;2024-01-07T05:11:58;28.60;;;17.75;;
32705;SDS011;19094;50.972;3.538;2024-01-07T05:14:24;28.33;;;18.38;;
32705;SDS011;19094;50.972;3.538;2024-01-07T05:16:50;26.15;;;16.08;;
32705;SDS011;19094;50.972;3.538;2024-01-07T05:19:16;30.05;;;18.42;;
32705;SDS011;19094;50.972;3.538;2024-01-07T05:21:41;30.17;;;18.25;;
32705;SDS011;19094;50.972;3.538;2024-01-07T05:24:07;30.52;;;17.55;;
32705;SDS011;19094;50.972;3.538;2024-01-07T05:26:39;22.67;;;13.32;;
32705;SDS011;19094;50.972;3.538;2024-01-07T05:29:07;23.10;;;14.93;;
32705;SDS011;19094;50.972;3.538;2024-01-07T05:31:33;24.13;;;14.68;;
32705;SDS011;19094;50.972;3.538;2024-01-07T05:33:58;20.55;;;13.68;;
32705;SDS011;19094;50.972;3.538;2024-01-07T05:36:24;22.27;;;13.25;;
32705;SDS011;19094;50.972;3.538;2024-01-07T05:38:50;16.63;;;12.07;;
32705;SDS011;19094;50.972;3.538;2024-01-07T05:41:16;18.33;;;11.82;;
32705;SDS011;19094;50.972;3.538;2024-01-07T05:43:41;21.60;;;12.68;;
32705;SDS011;19094;50.972;3.538;2024-01-07T05:46:07;21.50;;;12.88;;
32705;SDS011;19094;50.972;3.538;2024-01-07T05:48:43;20.98;;;11.52;;
32705;SDS011;19094;50.972;3.538;2024-01-07T05:51:10;19.77;;;11.70;;
32705;SDS011;19094;50.972;3.538;2024-01-07T05:53:36;19.85;;;11.68;;
32705;SDS011;19094;50.972;3.538;2024-01-07T05:56:02;23.42;;;12.00;;
32705;SDS011;19094;50.972;3.538;2024-01-07T05:58:28;17.70;;;12.05;;
32705;SDS011;19094;50.972;3.538;2024-01-07T06:00:54;22.42;;;12.80;;
32705;SDS011;19094;50.972;3.538;2024-01-07T06:03:20;21.02;;;13.00;;
32705;SDS011;19094;50.972;3.538;2024-01-07T06:05:45;20.25;;;12.60;;
32705;SDS011;19094;50.972;3.538;2024-01-07T06:08:11;21.75;;;12.95;;
32705;SDS011;19094;50.972;3.538;2024-01-07T06:10:38;17.40;;;12.25;;
32705;SDS011;19094;50.972;3.538;2024-01-07T06:13:04;18.67;;;12.27;;
32705;SDS011;19094;50.972;3.538;2024-01-07T06:15:29;23.10;;;13.38;;
32705;SDS011;19094;50.972;3.538;2024-01-07T06:17:55;18.85;;;12.13;;
32705;SDS011;19094;50.972;3.538;2024-01-07T06:20:21;21.52;;;12.35;;
32705;SDS011;19094;50.972;3.538;2024-01-07T06:22:47;20.85;;;12.90;;
32705;SDS011;19094;50.972;3.538;2024-01-07T06:25:13;20.75;;;12.45;;
32705;SDS011;19094;50.972;3.538;2024-01-07T06:27:39;21.08;;;13.38;;
32705;SDS011;19094;50.972;3.538;2024-01-07T06:30:05;23.02;;;13.05;;
32705;SDS011;19094;50.972;3.538;2024-01-07T06:32:31;23.98;;;12.30;;
32705;SDS011;19094;50.972;3.538;2024-01-07T06:34:57;15.68;;;11.20;;
32705;SDS011;19094;50.972;3.538;2024-01-07T06:37:23;22.85;;;13.65;;
32705;SDS011;19094;50.972;3.538;2024-01-07T06:39:50;23.92;;;13.20;;
32705;SDS011;19094;50.972;3.538;2024-01-07T06:42:16;25.75;;;13.60;;
32705;SDS011;19094;50.972;3.538;2024-01-07T06:44:41;20.95;;;13.50;;
32705;SDS011;19094;50.972;3.538;2024-01-07T06:47:07;21.92;;;13.00;;
32705;SDS011;19094;50.972;3.538;2024-01-07T06:49:33;25.17;;;14.05;;
32705;SDS011;19094;50.972;3.538;2024-01-07T06:51:58;21.30;;;13.25;;
32705;SDS011;19094;50.972;3.538;2024-01-07T06:54:24;20.38;;;13.00;;
32705;SDS011;19094;50.972;3.538;2024-01-07T06:56:50;21.67;;;13.65;;
32705;SDS011;19094;50.972;3.538;2024-01-07T06:59:16;20.33;;;13.15;;
32705;SDS011;19094;50.972;3.538;2024-01-07T07:01:42;20.25;;;14.15;;
32705;SDS011;19094;50.972;3.538;2024-01-07T07:04:07;23.42;;;14.82;;
32705;SDS011;19094;50.972;3.538;2024-01-07T07:06:33;23.80;;;14.15;;
32705;SDS011;19094;50.972;3.538;2024-01-07T07:08:59;21.90;;;13.95;;
32705;SDS011;19094;50.972;3.538;2024-01-07T07:11:25;20.65;;;14.30;;
32705;SDS011;19094;50.972;3.538;2024-01-07T07:13:51;22.02;;;14.48;;
32705;SDS011;19094;50.972;3.538;2024-01-07T07:16:16;22.77;;;14.63;;
32705;SDS011;19094;50.972;3.538;2024-01-07T07:18:42;27.00;;;15.15;;
32705;SDS011;19094;50.972;3.538;2024-01-07T07:21:08;26.42;;;16.13;;
32705;SDS011;19094;50.972;3.538;2024-01-07T07:23:33;21.55;;;14.27;;
32705;SDS011;19094;50.972;3.538;2024-01-07T07:25:59;23.55;;;15.32;;
32705;SDS011;19094;50.972;3.538;2024-01-07T07:28:25;21.27;;;14.48;;
32705;SDS011;19094;50.972;3.538;2024-01-07T07:30:51;27.25;;;16.27;;
32705;SDS011;19094;50.972;3.538;2024-01-07T07:33:18;28.95;;;17.48;;
32705;SDS011;19094;50.972;3.538;2024-01-07T07:35:43;27.08;;;17.40;;
32705;SDS011;19094;50.972;3.538;2024-01-07T07:38:09;24.55;;;16.67;;
32705;SDS011;19094;50.972;3.538;2024-01-07T07:40:35;31.75;;;17.17;;
32705;SDS011;19094;50.972;3.538;2024-01-07T07:43:00;26.67;;;16.50;;
32705;SDS011;19094;50.972;3.538;2024-01-07T07:45:26;30.48;;;16.88;;
32705;SDS011;19094;50.972;3.538;2024-01-07T07:47:52;31.60;;;16.50;;
32705;SDS011;19094;50.972;3.538;2024-01-07T07:50:17;27.63;;;15.65;;
32705;SDS011;19094;50.972;3.538;2024-01-07T07:52:43;28.02;;;16.02;;
32705;SDS011;19094;50.972;3.538;2024-01-07T07:55:09;25.73;;;15.75;;
32705;SDS011;19094;50.972;3.538;2024-01-07T07:57:35;27.17;;;16.42;;
32705;SDS011;19094;50.972;3.538;2024-01-07T08:00:01;30.10;;;16.20;;
32705;SDS011;19094;50.972;3.538;2024-01-07T08:02:27;29.15;;;16.88;;
32705;SDS011;19094;50.972;3.538;2024-01-07T08:04:53;26.85;;;16.15;;
32705;SDS011;19094;50.972;3.538;2024-01-07T08:07:18;24.67;;;15.60;;
32705;SDS011;19094;50.972;3.538;2024-01-07T08:09:44;30.45;;;15.88;;
32705;SDS011;19094;50.972;3.538;2024-01-07T08:12:09;29.58;;;15.75;;
32705;SDS011;19094;50.972;3.538;2024-01-07T08:14:37;30.50;;;17.23;;
32705;SDS011;19094;50.972;3.538;2024-01-07T08:17:06;27.70;;;16.45;;
32705;SDS011;19094;50.972;3.538;2024-01-07T08:19:35;28.75;;;15.85;;
32705;SDS011;19094;50.972;3.538;2024-01-07T08:22:01;28.73;;;17.27;;
32705;SDS011;19094;50.972;3.538;2024-01-07T08:24:27;31.58;;;17.08;;
32705;SDS011;19094;50.972;3.538;2024-01-07T08:26:52;32.30;;;17.95;;
32705;SDS011;19094;50.972;3.538;2024-01-07T08:29:18;26.00;;;16.63;;
32705;SDS011;19094;50.972;3.538;2024-01-07T08:31:44;31.10;;;18.50;;
32705;SDS011;19094;50.972;3.538;2024-01-07T08:34:09;42.17;;;19.02;;
32705;SDS011;19094;50.972;3.538;2024-01-07T08:36:35;31.27;;;19.38;;
32705;SDS011;19094;50.972;3.538;2024-01-07T08:39:01;36.63;;;19.52;;
32705;SDS011;19094;50.972;3.538;2024-01-07T08:41:26;31.80;;;18.92;;
32705;SDS011;19094;50.972;3.538;2024-01-07T08:43:52;35.53;;;20.60;;
32705;SDS011;19094;50.972;3.538;2024-01-07T08:46:21;36.58;;;20.30;;
32705;SDS011;19094;50.972;3.538;2024-01-07T08:48:47;34.08;;;19.45;;
32705;SDS011;19094;50.972;3.538;2024-01-07T08:51:13;41.60;;;22.27;;
32705;SDS011;19094;50.972;3.538;2024-01-07T08:53:39;40.15;;;22.17;;
32705;SDS011;19094;50.972;3.538;2024-01-07T08:56:05;46.40;;;24.02;;
32705;SDS011;19094;50.972;3.538;2024-01-07T08:58:31;48.75;;;25.30;;
32705;SDS011;19094;50.972;3.538;2024-01-07T09:00:58;43.95;;;23.50;;
32705;SDS011;19094;50.972;3.538;2024-01-07T09:03:23;47.47;;;23.52;;
32705;SDS011;19094;50.972;3.538;2024-01-07T09:05:49;43.90;;;24.27;;
32705;SDS011;19094;50.972;3.538;2024-01-07T09:08:15;45.63;;;23.75;;
32705;SDS011;19094;50.972;3.538;2024-01-07T09:10:40;45.75;;;24.27;;
32705;SDS011;19094;50.972;3.538;2024-01-07T09:13:06;42.42;;;23.77;;
32705;SDS011;19094;50.972;3.538;2024-01-07T09:15:32;45.90;;;24.00;;
32705;SDS011;19094;50.972;3.538;2024-01-07T09:17:57;42.70;;;23.27;;
32705;SDS011;19094;50.972;3.538;2024-01-07T09:20:23;41.42;;;20.95;;
32705;SDS011;19094;50.972;3.538;2024-01-07T09:22:49;32.33;;;18.83;;
32705;SDS011;19094;50.972;3.538;2024-01-07T09:25:15;41.50;;;22.80;;
32705;SDS011;19094;50.972;3.538;2024-01-07T09:27:41;42.63;;;22.65;;
32705;SDS011;19094;50.972;3.538;2024-01-07T09:30:10;41.20;;;21.73;;
32705;SDS011;19094;50.972;3.538;2024-01-07T09:32:39;45.55;;;23.00;;
32705;SDS011;19094;50.972;3.538;2024-01-07T09:35:06;42.22;;;22.13;;
32705;SDS011;19094;50.972;3.538;2024-01-07T09:37:31;37.72;;;21.73;;
32705;SDS011;19094;50.972;3.538;2024-01-07T09:39:57;40.67;;;22.67;;
32705;SDS011;19094;50.972;3.538;2024-01-07T09:42:23;41.80;;;22.08;;
32705;SDS011;19094;50.972;3.538;2024-01-07T09:44:50;37.53;;;22.63;;
32705;SDS011;19094;50.972;3.538;2024-01-07T09:47:16;44.40;;;23.38;;
32705;SDS011;19094;50.972;3.538;2024-01-07T09:49:43;45.20;;;22.70;;
32705;SDS011;19094;50.972;3.538;2024-01-07T09:52:09;44.58;;;21.33;;
32705;SDS011;19094;50.972;3.538;2024-01-07T09:54:37;40.88;;;22.30;;
32705;SDS011;19094;50.972;3.538;2024-01-07T09:57:03;44.83;;;26.08;;
32705;SDS011;19094;50.972;3.538;2024-01-07T09:59:34;38.92;;;23.33;;
32705;SDS011;19094;50.972;3.538;2024-01-07T10:02:01;43.55;;;23.38;;
32705;SDS011;19094;50.972;3.538;2024-01-07T10:04:28;47.47;;;24.88;;
32705;SDS011;19094;50.972;3.538;2024-01-07T10:06:54;40.08;;;21.45;;
32705;SDS011;19094;50.972;3.538;2024-01-07T10:09:23;46.40;;;24.50;;
32705;SDS011;19094;50.972;3.538;2024-01-07T10:11:59;45.53;;;24.10;;
32705;SDS011;19094;50.972;3.538;2024-01-07T10:14:25;44.33;;;24.77;;
32705;SDS011;19094;50.972;3.538;2024-01-07T10:16:54;49.35;;;27.23;;
32705;SDS011;19094;50.972;3.538;2024-01-07T10:19:23;45.80;;;25.65;;
32705;SDS011;19094;50.972;3.538;2024-01-07T10:22:01;51.75;;;27.10;;
32705;SDS011;19094;50.972;3.538;2024-01-07T10:24:38;47.33;;;24.25;;
32705;SDS011;19094;50.972;3.538;2024-01-07T10:27:05;45.13;;;23.98;;
32705;SDS011;19094;50.972;3.538;2024-01-07T10:29:32;41.72;;;24.23;;
32705;SDS011;19094;50.972;3.538;2024-01-07T10:31:58;48.80;;;24.70;;
32705;SDS011;19094;50.972;3.538;2024-01-07T10:34:28;49.35;;;25.10;;
32705;SDS011;19094;50.972;3.538;2024-01-07T10:36:56;47.78;;;26.25;;
32705;SDS011;19094;50.972;3.538;2024-01-07T10:39:24;46.10;;;24.58;;
32705;SDS011;19094;50.972;3.538;2024-01-07T10:41:50;43.22;;;25.15;;
32705;SDS011;19094;50.972;3.538;2024-01-07T10:44:23;40.30;;;23.75;;
32705;SDS011;19094;50.972;3.538;2024-01-07T10:46:50;47.70;;;26.10;;
32705;SDS011;19094;50.972;3.538;2024-01-07T10:49:21;43.92;;;24.73;;
32705;SDS011;19094;50.972;3.538;2024-01-07T10:54:30;39.33;;;22.95;;
32705;SDS011;19094;50.972;3.538;2024-01-07T10:56:58;43.65;;;21.33;;
32705;SDS011;19094;50.972;3.538;2024-01-07T10:59:26;35.67;;;21.27;;
32705;SDS011;19094;50.972;3.538;2024-01-07T11:01:53;32.22;;;19.35;;
32705;SDS011;19094;50.972;3.538;2024-01-07T11:04:23;36.05;;;19.73;;
32705;SDS011;19094;50.972;3.538;2024-01-07T11:09:51;30.63;;;17.30;;
32705;SDS011;19094;50.972;3.538;2024-01-07T11:12:26;28.02;;;15.75;;
32705;SDS011;19094;50.972;3.538;2024-01-07T11:14:52;32.80;;;17.63;;
32705;SDS011;19094;50.972;3.538;2024-01-07T11:20:18;31.98;;;17.45;;
32705;SDS011;19094;50.972;3.538;2024-01-07T11:22:45;32.80;;;19.55;;
32705;SDS011;19094;50.972;3.538;2024-01-07T11:25:27;43.60;;;20.15;;
32705;SDS011;19094;50.972;3.538;2024-01-07T11:27:56;32.97;;;18.25;;
32705;SDS011;19094;50.972;3.538;2024-01-07T11:30:22;34.90;;;19.92;;
32705;SDS011;19094;50.972;3.538;2024-01-07T11:32:49;34.15;;;20.02;;
32705;SDS011;19094;50.972;3.538;2024-01-07T11:38:18;33.33;;;20.73;;
32705;SDS011;19094;50.972;3.538;2024-01-07T11:40:44;34.40;;;18.92;;
32705;SDS011;19094;50.972;3.538;2024-01-07T11:43:12;33.28;;;19.05;;
32705;SDS011;19094;50.972;3.538;2024-01-07T11:45:37;36.40;;;20.30;;
32705;SDS011;19094;50.972;3.538;2024-01-07T11:48:04;33.67;;;19.55;;
32705;SDS011;19094;50.972;3.538;2024-01-07T11:50:30;37.60;;;20.50;;
32705;SDS011;19094;50.972;3.538;2024-01-07T11:52:56;36.55;;;20.92;;
32705;SDS011;19094;50.972;3.538;2024-01-07T11:55:22;39.58;;;21.70;;
32705;SDS011;19094;50.972;3.538;2024-01-07T11:57:48;31.08;;;19.17;;
32705;SDS011;19094;50.972;3.538;2024-01-07T12:00:14;40.63;;;21.40;;
32705;SDS011;19094;50.972;3.538;2024-01-07T12:02:40;33.13;;;19.20;;
32705;SDS011;19094;50.972;3.538;2024-01-07T12:05:05;38.88;;;20.20;;
32705;SDS011;19094;50.972;3.538;2024-01-07T12:07:31;36.10;;;18.80;;
32705;SDS011;19094;50.972;3.538;2024-01-07T12:09:57;41.60;;;22.35;;
32705;SDS011;19094;50.972;3.538;2024-01-07T12:12:23;41.33;;;21.40;;
32705;SDS011;19094;50.972;3.538;2024-01-07T12:14:49;38.10;;;22.17;;
32705;SDS011;19094;50.972;3.538;2024-01-07T12:17:18;40.33;;;21.75;;
32705;SDS011;19094;50.972;3.538;2024-01-07T12:19:44;39.55;;;20.92;;
32705;SDS011;19094;50.972;3.538;2024-01-07T12:22:10;32.83;;;19.92;;
32705;SDS011;19094;50.972;3.538;2024-01-07T12:24:36;34.05;;;16.98;;
32705;SDS011;19094;50.972;3.538;2024-01-07T12:27:05;41.60;;;23.40;;
32705;SDS011;19094;50.972;3.538;2024-01-07T12:29:31;35.90;;;20.60;;
32705;SDS011;19094;50.972;3.538;2024-01-07T12:31:57;34.67;;;19.75;;
32705;SDS011;19094;50.972;3.538;2024-01-07T12:34:22;33.35;;;20.02;;
32705;SDS011;19094;50.972;3.538;2024-01-07T12:36:48;34.85;;;20.08;;
32705;SDS011;19094;50.972;3.538;2024-01-07T12:39:14;33.67;;;20.33;;
32705;SDS011;19094;50.972;3.538;2024-01-07T12:41:40;36.63;;;21.10;;
32705;SDS011;19094;50.972;3.538;2024-01-07T12:44:05;38.13;;;21.85;;
32705;SDS011;19094;50.972;3.538;2024-01-07T12:46:33;32.40;;;20.05;;
32705;SDS011;19094;50.972;3.538;2024-01-07T12:48:59;34.20;;;20.45;;
32705;SDS011;19094;50.972;3.538;2024-01-07T12:51:25;34.70;;;19.88;;
32705;SDS011;19094;50.972;3.538;2024-01-07T12:53:50;36.20;;;19.38;;
32705;SDS011;19094;50.972;3.538;2024-01-07T12:56:16;34.88;;;20.42;;
32705;SDS011;19094;50.972;3.538;2024-01-07T12:58:42;31.55;;;18.83;;
32705;SDS011;19094;50.972;3.538;2024-01-07T13:01:08;33.05;;;20.42;;
32705;SDS011;19094;50.972;3.538;2024-01-07T13:03:34;35.95;;;20.23;;
32705;SDS011;19094;50.972;3.538;2024-01-07T13:05:59;35.03;;;20.92;;
32705;SDS011;19094;50.972;3.538;2024-01-07T13:08:26;35.50;;;21.00;;
32705;SDS011;19094;50.972;3.538;2024-01-07T13:10:52;37.58;;;18.95;;
32705;SDS011;19094;50.972;3.538;2024-01-07T13:13:20;35.85;;;19.85;;
32705;SDS011;19094;50.972;3.538;2024-01-07T13:15:45;34.65;;;19.70;;
32705;SDS011;19094;50.972;3.538;2024-01-07T13:18:11;35.17;;;20.83;;
32705;SDS011;19094;50.972;3.538;2024-01-07T13:20:37;38.95;;;21.83;;
32705;SDS011;19094;50.972;3.538;2024-01-07T13:23:04;43.53;;;21.77;;
32705;SDS011;19094;50.972;3.538;2024-01-07T13:25:30;36.08;;;21.60;;
32705;SDS011;19094;50.972;3.538;2024-01-07T13:27:56;33.58;;;21.48;;
32705;SDS011;19094;50.972;3.538;2024-01-07T13:30:23;35.40;;;22.63;;
32705;SDS011;19094;50.972;3.538;2024-01-07T13:32:48;35.00;;;21.30;;
32705;SDS011;19094;50.972;3.538;2024-01-07T13:35:16;40.85;;;22.35;;
32705;SDS011;19094;50.972;3.538;2024-01-07T13:37:42;39.38;;;21.45;;
32705;SDS011;19094;50.972;3.538;2024-01-07T13:40:08;36.80;;;22.08;;
32705;SDS011;19094;50.972;3.538;2024-01-07T13:42:35;39.78;;;23.05;;
32705;SDS011;19094;50.972;3.538;2024-01-07T13:45:02;40.15;;;24.48;;
32705;SDS011;19094;50.972;3.538;2024-01-07T13:47:28;46.65;;;24.42;;
32705;SDS011;19094;50.972;3.538;2024-01-07T13:49:54;37.95;;;21.92;;
32705;SDS011;19094;50.972;3.538;2024-01-07T13:52:19;36.85;;;22.50;;
32705;SDS011;19094;50.972;3.538;2024-01-07T13:54:45;47.40;;;21.13;;
32705;SDS011;19094;50.972;3.538;2024-01-07T13:57:11;40.70;;;21.95;;
32705;SDS011;19094;50.972;3.538;2024-01-07T13:59:38;38.75;;;22.45;;
32705;SDS011;19094;50.972;3.538;2024-01-07T14:02:03;33.53;;;17.90;;
32705;SDS011;19094;50.972;3.538;2024-01-07T14:04:30;30.92;;;17.88;;
32705;SDS011;19094;50.972;3.538;2024-01-07T14:06:56;30.20;;;18.52;;
32705;SDS011;19094;50.972;3.538;2024-01-07T14:09:23;29.17;;;17.88;;
32705;SDS011;19094;50.972;3.538;2024-01-07T14:11:49;27.63;;;17.63;;
32705;SDS011;19094;50.972;3.538;2024-01-07T14:14:15;29.25;;;17.77;;
32705;SDS011;19094;50.972;3.538;2024-01-07T14:16:41;32.80;;;17.60;;
32705;SDS011;19094;50.972;3.538;2024-01-07T14:19:07;25.48;;;15.05;;
32705;SDS011;19094;50.972;3.538;2024-01-07T14:21:32;33.03;;;18.98;;
32705;SDS011;19094;50.972;3.538;2024-01-07T14:23:58;31.08;;;18.15;;
32705;SDS011;19094;50.972;3.538;2024-01-07T14:26:24;30.08;;;18.15;;
32705;SDS011;19094;50.972;3.538;2024-01-07T14:28:50;33.58;;;17.88;;
32705;SDS011;19094;50.972;3.538;2024-01-07T14:31:16;30.88;;;17.98;;
32705;SDS011;19094;50.972;3.538;2024-01-07T14:33:42;30.60;;;19.42;;
32705;SDS011;19094;50.972;3.538;2024-01-07T14:36:09;32.17;;;17.02;;